In Rescue
 
Open Full Screen Window  High Contrast Mode
Wind Gusting 00 knots
07
October 25, 2021 5:17 PM EDT
Weather Information
Wind Direction
  010 °
Wind Speed
  07 kt (8 mph)
Wind Gust
  00 kt (0 mph)
Variable Wind
350°
050°
Altimeter
29.93 in
Visibility
10 SM
Temperature
09° C
48° F
Dewpoint
06° C
43° F
Humidity
82%
1hr Rain Fall
00.00 in.
24hr Rain Fall
00.00 in.
Sky Condition
Overcast @ 1,900 ft
MVFR

METAR KY31 252117Z AUTO 01007KT 350V050 10SM OVC019 09/06 A2993 RMK AO2 T00870062

FAA Disclaimer: The data displayed is for advisory purposes only and is not to be used for flight planning or operations.